Time;durP1;ratioP1;P1;durP2;ratioP2;P2;SDS_P1;SDS_P2;PMS_P1;PMS_P2;Temp;Humidity;BMP_temperature;BMP_pressure;BME280_temperature;BME280_humidity;BME280_pressure;Samples;Min_cycle;Max_cycle;Signal;HPM_P1;HPM_P2
2023/02/04 00:01:59;;;;;;;10.30;3.37;;;10.40;99.90;;;;;;4858587;29;20504;-80
2023/02/04 00:04:26;;;;;;;12.17;3.83;;;10.40;99.90;;;;;;4854388;29;20462;-81
2023/02/04 00:06:52;;;;;;;13.10;4.50;;;10.40;99.90;;;;;;4858141;29;20517;-81
2023/02/04 00:09:19;;;;;;;9.83;2.87;;;10.30;99.90;;;;;;4857704;29;20524;-80
2023/02/04 00:11:45;;;;;;;11.93;3.60;;;10.30;99.90;;;;;;4876627;29;20511;-80
2023/02/04 00:14:12;;;;;;;8.60;3.07;;;10.40;99.90;;;;;;4880407;29;20453;-81
2023/02/04 00:16:38;;;;;;;10.93;2.93;;;10.60;99.90;;;;;;4868664;29;20492;-81
2023/02/04 00:19:05;;;;;;;10.50;3.20;;;10.50;99.90;;;;;;4862492;29;20465;-79
2023/02/04 00:21:32;;;;;;;14.87;3.63;;;10.40;99.90;;;;;;4864614;29;20521;-81
2023/02/04 00:23:58;;;;;;;9.40;3.27;;;10.40;99.90;;;;;;4861061;29;20458;-80
2023/02/04 00:26:25;;;;;;;9.43;3.10;;;10.50;99.90;;;;;;4871965;29;20546;-79
2023/02/04 00:28:51;;;;;;;11.90;3.70;;;10.40;99.90;;;;;;4875890;29;20472;-81
2023/02/04 00:31:18;;;;;;;13.40;5.30;;;10.50;99.90;;;;;;4882213;29;20472;-80
2023/02/04 00:33:45;;;;;;;9.60;2.60;;;10.40;99.90;;;;;;4878558;29;20476;-82
2023/02/04 00:36:11;;;;;;;8.63;3.80;;;10.60;99.90;;;;;;4869524;29;20502;-82
2023/02/04 00:38:38;;;;;;;10.73;3.70;;;10.60;99.90;;;;;;4866338;29;20471;-80
2023/02/04 00:41:05;;;;;;;9.87;3.33;;;10.60;99.90;;;;;;4865335;29;20471;-81
2023/02/04 00:43:32;;;;;;;13.00;3.27;;;10.60;99.90;;;;;;4857409;29;20552;-81
2023/02/04 00:45:59;;;;;;;12.20;3.47;;;10.40;99.90;;;;;;4860973;29;21014;-81
2023/02/04 00:48:26;;;;;;;10.03;2.87;;;10.60;99.90;;;;;;4858507;29;20551;-81
2023/02/04 00:50:53;;;;;;;11.67;3.97;;;10.50;99.90;;;;;;4861187;29;20480;-80
2023/02/04 00:53:20;;;;;;;12.27;2.70;;;10.50;99.90;;;;;;4874648;29;21075;-81
2023/02/04 00:55:47;;;;;;;12.53;3.73;;;10.40;99.90;;;;;;4857627;29;20576;-81
2023/02/04 00:58:14;;;;;;;7.93;3.20;;;10.40;99.90;;;;;;4855557;29;20473;-81
2023/02/04 01:00:40;;;;;;;8.83;2.80;;;10.30;99.90;;;;;;4876362;29;20573;-79
2023/02/04 01:03:07;;;;;;;13.90;3.60;;;10.30;99.90;;;;;;4854059;29;20583;-79
2023/02/04 01:05:34;;;;;;;6.23;2.57;;;10.30;99.90;;;;;;4863399;29;20516;-80
2023/02/04 01:08:00;;;;;;;11.37;2.93;;;10.20;99.90;;;;;;4854408;29;20517;-81
2023/02/04 01:10:28;;;;;;;11.83;2.93;;;10.20;99.90;;;;;;4854712;29;20944;-80
2023/02/04 01:12:55;;;;;;;15.30;3.37;;;10.20;99.90;;;;;;4853089;29;20485;-81
2023/02/04 01:15:21;;;;;;;13.47;3.73;;;10.40;99.90;;;;;;4851681;29;21160;-81
2023/02/04 01:17:51;;;;;;;12.10;3.73;;;10.40;99.90;;;;;;4857668;29;20514;-81
2023/02/04 01:20:18;;;;;;;11.37;3.30;;;10.30;99.90;;;;;;4853689;29;20475;-82
2023/02/04 01:22:48;;;;;;;9.00;2.20;;;10.30;99.90;;;;;;4859234;29;20500;-81
2023/02/04 01:25:15;;;;;;;12.63;2.47;;;10.20;99.90;;;;;;4856304;29;20504;-81
2023/02/04 01:27:43;;;;;;;10.97;3.27;;;10.30;99.90;;;;;;4871353;29;20460;-79
2023/02/04 01:30:14;;;;;;;16.77;3.33;;;10.20;99.90;;;;;;4857368;29;20492;-80
2023/02/04 01:32:41;;;;;;;14.93;3.50;;;10.20;99.90;;;;;;4861392;29;20483;-82
2023/02/04 01:35:07;;;;;;;11.43;3.30;;;10.10;99.90;;;;;;4860415;29;20465;-80
2023/02/04 01:37:34;;;;;;;16.53;3.67;;;10.10;99.90;;;;;;4861957;29;20803;-79
2023/02/04 01:40:01;;;;;;;12.50;3.13;;;10.20;99.90;;;;;;4859312;29;20471;-80
2023/02/04 01:42:28;;;;;;;9.73;3.23;;;10.20;99.90;;;;;;4878366;29;20499;-82
2023/02/04 01:44:54;;;;;;;12.77;3.30;;;10.20;99.90;;;;;;4864485;29;20543;-81
2023/02/04 01:47:22;;;;;;;14.47;3.00;;;10.30;99.90;;;;;;4861235;29;20461;-81
2023/02/04 01:49:51;;;;;;;7.73;2.70;;;10.20;99.90;;;;;;4863207;29;20623;-81
2023/02/04 01:52:18;;;;;;;12.37;3.20;;;10.20;99.90;;;;;;4858908;29;20490;-81
2023/02/04 01:54:45;;;;;;;9.57;3.67;;;10.20;99.90;;;;;;4866060;29;20981;-81
2023/02/04 01:57:14;;;;;;;11.03;3.57;;;10.20;99.90;;;;;;4863721;29;20467;-81
2023/02/04 01:59:46;;;;;;;12.27;3.43;;;10.40;99.90;;;;;;4862492;29;20468;-81
2023/02/04 02:02:40;;;;;;;12.27;2.40;;;10.60;99.90;;;;;;4861546;29;20484;-81
2023/02/04 02:05:11;;;;;;;13.43;3.70;;;10.30;99.90;;;;;;4862221;29;20492;-81
2023/02/04 02:07:38;;;;;;;14.47;3.70;;;10.30;99.90;;;;;;4878575;29;20487;-81
2023/02/04 02:10:09;;;;;;;10.87;2.83;;;10.20;99.90;;;;;;4871551;29;20503;-80
2023/02/04 02:12:36;;;;;;;13.97;3.50;;;10.20;99.90;;;;;;4865756;29;21003;-81
2023/02/04 02:15:04;;;;;;;13.20;3.27;;;10.10;99.90;;;;;;4865141;29;20530;-81
2023/02/04 02:17:32;;;;;;;9.63;2.90;;;10.00;99.90;;;;;;4874123;29;20536;-81
2023/02/04 02:19:59;;;;;;;10.60;3.40;;;10.10;99.90;;;;;;4862693;29;20465;-81
2023/02/04 02:22:40;;;;;;;9.33;3.37;;;10.30;99.90;;;;;;4864484;29;20492;-81
2023/02/04 02:25:09;;;;;;;10.47;3.80;;;10.20;99.90;;;;;;4867465;29;20932;-81
2023/02/04 02:27:36;;;;;;;11.80;3.57;;;10.10;99.90;;;;;;4860708;29;20497;-80
2023/02/04 02:30:04;;;;;;;11.33;4.20;;;10.00;99.90;;;;;;4858730;29;20588;-82
2023/02/04 02:32:31;;;;;;;9.23;3.33;;;9.90;99.90;;;;;;4860506;29;21310;-81
2023/02/04 02:34:58;;;;;;;10.10;2.77;;;10.00;99.90;;;;;;4861712;29;20461;-81
2023/02/04 02:37:25;;;;;;;9.90;3.00;;;10.10;99.90;;;;;;4877910;29;20469;-82
2023/02/04 02:39:52;;;;;;;10.13;3.57;;;10.10;99.90;;;;;;4859904;29;20782;-81
2023/02/04 02:42:19;;;;;;;12.70;2.97;;;10.00;99.90;;;;;;4874154;29;20489;-81
2023/02/04 02:44:47;;;;;;;19.87;3.77;;;10.00;99.90;;;;;;4861794;29;20519;-82
2023/02/04 02:47:17;;;;;;;13.30;3.57;;;9.90;99.90;;;;;;4861399;29;20549;-82
2023/02/04 02:49:47;;;;;;;13.07;3.30;;;9.90;99.90;;;;;;4860761;29;20981;-81
2023/02/04 02:52:14;;;;;;;9.17;2.90;;;9.90;99.90;;;;;;4859294;29;20895;-80
2023/02/04 02:54:41;;;;;;;10.87;3.27;;;9.80;99.90;;;;;;4860959;29;20488;-80
2023/02/04 02:57:17;;;;;;;11.33;2.63;;;9.80;99.90;;;;;;4860816;29;20524;-80
2023/02/04 02:59:45;;;;;;;10.73;2.93;;;9.80;99.90;;;;;;4863273;29;20475;-79
2023/02/04 03:02:14;;;;;;;9.63;3.73;;;9.80;99.90;;;;;;4860611;29;20481;-81
2023/02/04 03:04:49;;;;;;;10.53;2.73;;;9.70;99.90;;;;;;4857984;29;20470;-81
2023/02/04 03:07:19;;;;;;;6.10;2.70;;;9.80;99.90;;;;;;4862132;29;20481;-81
2023/02/04 03:09:47;;;;;;;8.83;2.67;;;9.70;99.90;;;;;;4861296;29;20582;-81
2023/02/04 03:12:14;;;;;;;7.80;2.80;;;9.80;99.90;;;;;;4873165;29;20514;-81
2023/02/04 03:14:41;;;;;;;8.60;2.60;;;9.80;99.90;;;;;;4869364;29;20971;-81
2023/02/04 03:17:09;;;;;;;10.10;3.00;;;9.80;99.90;;;;;;4860994;29;20555;-82
2023/02/04 03:19:37;;;;;;;14.70;3.80;;;9.80;99.90;;;;;;4862008;29;20472;-81
2023/02/04 03:22:05;;;;;;;11.93;3.83;;;9.80;99.90;;;;;;4870172;29;20580;-80
2023/02/04 03:24:33;;;;;;;12.43;3.80;;;9.80;99.90;;;;;;4875154;29;20471;-83
2023/02/04 03:27:00;;;;;;;9.90;2.97;;;9.80;99.90;;;;;;4860674;29;20472;-81
2023/02/04 03:29:27;;;;;;;8.33;2.40;;;9.70;99.90;;;;;;4857888;29;21042;-79
2023/02/04 03:31:58;;;;;;;15.80;3.80;;;9.60;99.90;;;;;;4876065;29;20473;-80
2023/02/04 03:34:25;;;;;;;7.60;3.23;;;9.70;99.90;;;;;;4865327;29;20464;-80
2023/02/04 03:36:52;;;;;;;8.30;2.10;;;9.60;99.90;;;;;;4860846;29;20498;-80
2023/02/04 03:39:19;;;;;;;11.17;3.10;;;9.70;99.90;;;;;;4862503;29;20472;-81
2023/02/04 03:41:46;;;;;;;10.40;4.03;;;9.70;99.90;;;;;;4861535;29;20469;-80
2023/02/04 03:44:13;;;;;;;9.63;2.90;;;9.70;99.90;;;;;;4890193;29;20502;-80
2023/02/04 03:46:40;;;;;;;10.73;2.97;;;9.70;99.90;;;;;;4884226;29;20471;-79
2023/02/04 03:49:07;;;;;;;8.83;2.97;;;9.70;99.90;;;;;;4890228;29;20587;-81
2023/02/04 03:51:33;;;;;;;15.23;3.20;;;9.80;99.90;;;;;;4891369;29;20491;-80
2023/02/04 03:54:00;;;;;;;11.30;3.07;;;9.80;99.90;;;;;;4905556;29;20513;-80
2023/02/04 03:56:27;;;;;;;13.20;3.47;;;9.80;99.90;;;;;;4884488;29;20443;-81
2023/02/04 03:58:54;;;;;;;7.53;2.37;;;9.80;99.90;;;;;;4888409;29;20499;-81
2023/02/04 04:01:21;;;;;;;9.20;3.20;;;9.80;99.90;;;;;;4891304;29;20463;-79
2023/02/04 04:03:48;;;;;;;8.87;2.40;;;9.80;99.90;;;;;;4876009;29;20536;-79
2023/02/04 04:06:14;;;;;;;12.60;4.50;;;9.80;99.90;;;;;;4883132;29;20471;-81
2023/02/04 04:08:42;;;;;;;7.60;3.00;;;9.90;99.90;;;;;;4858668;29;20465;-78
2023/02/04 04:11:08;;;;;;;14.07;3.07;;;10.30;99.90;;;;;;4859046;29;20495;-80
2023/02/04 04:13:35;;;;;;;13.33;3.63;;;10.10;99.90;;;;;;4861310;29;21057;-80
2023/02/04 04:16:03;;;;;;;9.83;3.23;;;10.00;99.90;;;;;;4859723;29;20721;-81
2023/02/04 04:18:31;;;;;;;8.57;2.40;;;10.00;99.90;;;;;;4857961;29;20467;-81
2023/02/04 04:20:58;;;;;;;11.13;3.27;;;9.80;99.90;;;;;;4860167;29;20492;-81
2023/02/04 04:23:25;;;;;;;15.57;3.67;;;9.80;99.90;;;;;;4872933;29;20487;-80
2023/02/04 04:25:51;;;;;;;8.80;2.90;;;9.70;99.90;;;;;;4860590;29;20529;-80
2023/02/04 04:28:18;;;;;;;13.37;3.73;;;9.70;99.90;;;;;;4855665;29;20475;-80
2023/02/04 04:30:45;;;;;;;9.87;2.90;;;9.70;99.90;;;;;;4858508;29;20545;-81
2023/02/04 04:33:12;;;;;;;15.80;2.70;;;9.70;99.90;;;;;;4858947;29;20505;-79
2023/02/04 04:35:39;;;;;;;10.93;2.67;;;9.60;99.90;;;;;;4858310;29;21075;-80
2023/02/04 04:38:06;;;;;;;12.67;2.53;;;9.60;99.90;;;;;;4858811;29;20587;-80
2023/02/04 04:40:33;;;;;;;12.23;3.13;;;9.60;99.90;;;;;;4866529;29;22087;-81
2023/02/04 04:43:00;;;;;;;8.33;2.87;;;9.60;99.90;;;;;;4873452;29;20567;-79
2023/02/04 04:45:26;;;;;;;10.20;2.80;;;9.60;99.90;;;;;;4874647;29;20524;-80
2023/02/04 04:47:53;;;;;;;15.03;3.23;;;9.60;99.90;;;;;;4867444;29;20475;-80
2023/02/04 04:50:20;;;;;;;9.33;2.80;;;9.60;99.90;;;;;;4873061;29;20520;-80
2023/02/04 04:52:46;;;;;;;9.97;2.87;;;9.60;99.90;;;;;;4858112;29;20492;-80
2023/02/04 04:55:13;;;;;;;10.33;2.60;;;9.60;99.90;;;;;;4846435;29;20500;-84
2023/02/04 04:57:40;;;;;;;8.70;2.93;;;9.50;99.90;;;;;;4870569;29;20497;-81
2023/02/04 05:00:07;;;;;;;9.57;3.10;;;9.60;99.90;;;;;;4863000;29;20845;-81
2023/02/04 05:02:34;;;;;;;10.10;3.10;;;9.60;99.90;;;;;;4866361;29;20494;-80
2023/02/04 05:05:00;;;;;;;8.17;3.43;;;9.60;99.90;;;;;;4865414;29;20468;-80
2023/02/04 05:07:27;;;;;;;7.13;2.73;;;9.60;99.90;;;;;;4864694;29;20552;-81
2023/02/04 05:09:54;;;;;;;10.50;3.17;;;9.60;99.90;;;;;;4879787;29;20472;-80
2023/02/04 05:12:20;;;;;;;12.90;2.73;;;9.60;99.90;;;;;;4867869;29;20482;-80
2023/02/04 05:14:47;;;;;;;11.13;2.67;;;9.60;99.90;;;;;;4883679;29;20566;-79
2023/02/04 05:17:13;;;;;;;13.83;4.87;;;9.60;99.90;;;;;;4863259;29;20456;-80
2023/02/04 05:19:40;;;;;;;12.10;3.20;;;9.60;99.90;;;;;;4859186;29;20540;-80
2023/02/04 05:22:06;;;;;;;6.00;2.60;;;9.70;99.90;;;;;;4871740;29;20606;-79
2023/02/04 05:24:33;;;;;;;9.53;3.20;;;9.80;99.90;;;;;;4855084;29;20468;-80
2023/02/04 05:27:00;;;;;;;8.57;2.33;;;9.90;99.90;;;;;;4870557;29;20865;-80
2023/02/04 05:29:26;;;;;;;15.40;3.30;;;9.80;99.90;;;;;;4873348;29;20491;-80
2023/02/04 05:31:53;;;;;;;10.10;2.70;;;9.80;99.90;;;;;;4856899;29;20932;-80
2023/02/04 05:34:20;;;;;;;8.83;2.60;;;9.80;99.90;;;;;;4859797;29;20475;-79
2023/02/04 05:36:48;;;;;;;7.13;2.70;;;9.70;99.90;;;;;;4872627;29;20460;-80
2023/02/04 05:39:15;;;;;;;9.27;2.80;;;9.60;99.90;;;;;;4872887;29;20512;-80
2023/02/04 05:41:42;;;;;;;9.13;2.47;;;9.50;99.90;;;;;;4852934;29;22039;-80
2023/02/04 05:44:08;;;;;;;7.17;2.90;;;9.50;99.90;;;;;;4856609;29;20472;-80
2023/02/04 05:46:36;;;;;;;11.80;4.30;;;9.50;99.90;;;;;;4867809;29;20473;-81
2023/02/04 05:49:03;;;;;;;11.70;3.37;;;9.40;99.90;;;;;;4853035;29;20528;-80
2023/02/04 05:51:30;;;;;;;16.63;3.27;;;9.40;99.90;;;;;;4856350;29;20500;-80
2023/02/04 05:53:56;;;;;;;16.53;3.70;;;9.40;99.90;;;;;;4868585;29;20939;-81
2023/02/04 05:56:24;;;;;;;12.13;2.70;;;9.40;99.90;;;;;;4850962;29;21063;-80
2023/02/04 05:58:51;;;;;;;8.53;2.80;;;9.40;99.90;;;;;;4855268;29;20494;-79
2023/02/04 06:01:19;;;;;;;9.80;3.40;;;9.40;99.90;;;;;;4853746;29;20472;-80
2023/02/04 06:03:46;;;;;;;9.70;3.40;;;9.30;99.90;;;;;;4857227;29;20575;-80
2023/02/04 06:06:13;;;;;;;7.63;2.93;;;9.40;99.90;;;;;;4851339;29;20496;-80
2023/02/04 06:08:40;;;;;;;9.00;2.80;;;9.40;99.90;;;;;;4852918;29;20475;-77
2023/02/04 06:11:07;;;;;;;10.80;2.90;;;9.40;99.90;;;;;;4852149;29;20495;-79
2023/02/04 06:13:33;;;;;;;12.67;2.90;;;9.40;99.90;;;;;;4851663;29;20485;-80
2023/02/04 06:16:00;;;;;;;9.93;2.77;;;9.40;99.90;;;;;;4851788;29;20468;-79
2023/02/04 06:18:27;;;;;;;11.17;3.40;;;9.40;99.90;;;;;;4847807;29;21314;-79
2023/02/04 06:20:54;;;;;;;9.90;2.83;;;9.40;99.90;;;;;;4855275;29;20470;-80
2023/02/04 06:23:21;;;;;;;14.97;3.03;;;9.40;99.90;;;;;;4854661;29;20511;-80
2023/02/04 06:25:49;;;;;;;9.13;2.80;;;9.30;99.90;;;;;;4861158;29;20475;-81
2023/02/04 06:28:16;;;;;;;15.93;3.20;;;9.40;99.90;;;;;;4854736;29;20829;-81
2023/02/04 06:30:43;;;;;;;7.90;3.07;;;9.40;99.90;;;;;;4870762;29;20542;-80
2023/02/04 06:33:10;;;;;;;15.93;3.63;;;9.30;99.90;;;;;;4859110;29;21738;-81
2023/02/04 06:35:37;;;;;;;11.47;3.70;;;9.30;99.90;;;;;;4855436;29;20929;-81
2023/02/04 06:38:04;;;;;;;11.70;3.43;;;9.30;99.90;;;;;;4875490;29;20477;-81
2023/02/04 06:40:31;;;;;;;9.60;3.37;;;9.30;99.90;;;;;;4858930;29;20515;-81
2023/02/04 06:42:59;;;;;;;8.50;3.50;;;9.30;99.90;;;;;;4856850;29;20494;-81
2023/02/04 06:45:26;;;;;;;11.50;3.13;;;9.50;99.90;;;;;;4858982;29;20468;-81
2023/02/04 06:47:53;;;;;;;10.17;2.87;;;9.40;99.90;;;;;;4854706;29;20491;-79
2023/02/04 06:50:20;;;;;;;13.00;3.80;;;9.40;99.90;;;;;;4863324;29;21150;-81
2023/02/04 06:52:47;;;;;;;11.10;3.40;;;9.40;99.90;;;;;;4857487;29;20496;-79
2023/02/04 06:55:16;;;;;;;7.23;3.20;;;9.40;99.90;;;;;;4870091;29;20473;-80
2023/02/04 06:57:43;;;;;;;14.90;3.53;;;9.30;99.90;;;;;;4857088;29;20474;-81
2023/02/04 07:00:11;;;;;;;16.37;3.70;;;9.30;99.90;;;;;;4854971;29;20479;-80
2023/02/04 07:02:38;;;;;;;6.53;2.87;;;9.30;99.90;;;;;;4872091;29;20607;-81
2023/02/04 07:05:06;;;;;;;9.80;2.63;;;9.30;99.90;;;;;;4857583;29;21118;-80
2023/02/04 07:07:34;;;;;;;13.80;4.50;;;9.30;99.90;;;;;;4862121;29;20459;-81
2023/02/04 07:10:03;;;;;;;11.23;3.43;;;9.30;99.90;;;;;;4869371;29;20579;-81
2023/02/04 07:12:30;;;;;;;11.10;3.53;;;9.40;99.90;;;;;;4855247;29;20620;-81
2023/02/04 07:14:57;;;;;;;14.43;4.07;;;9.40;99.90;;;;;;4857618;29;20470;-81
2023/02/04 07:17:25;;;;;;;10.60;3.77;;;9.50;99.90;;;;;;4872890;29;20480;-81
2023/02/04 07:19:52;;;;;;;11.83;3.50;;;9.40;99.90;;;;;;4858701;29;20460;-79
2023/02/04 07:22:20;;;;;;;16.37;3.67;;;9.30;99.90;;;;;;4857046;29;20497;-80
2023/02/04 07:24:46;;;;;;;15.67;4.80;;;9.40;99.90;;;;;;4858482;29;20469;-81
2023/02/04 07:27:13;;;;;;;12.70;3.70;;;9.30;99.90;;;;;;4874039;29;20583;-81
2023/02/04 07:29:40;;;;;;;14.27;3.73;;;9.30;99.90;;;;;;4867812;29;20558;-80
2023/02/04 07:32:07;;;;;;;10.20;3.40;;;9.20;99.90;;;;;;4858688;29;21536;-81
2023/02/04 07:34:34;;;;;;;17.03;3.50;;;9.30;99.90;;;;;;4860948;29;20594;-80
2023/02/04 07:37:01;;;;;;;16.20;4.53;;;9.30;99.90;;;;;;4879118;29;20972;-81
2023/02/04 07:39:29;;;;;;;11.73;3.90;;;9.30;99.90;;;;;;4865111;29;20510;-81
2023/02/04 07:41:55;;;;;;;11.63;4.30;;;9.30;99.90;;;;;;4856867;29;20527;-80
2023/02/04 07:44:22;;;;;;;10.73;3.60;;;9.30;99.90;;;;;;4873485;29;20996;-81
2023/02/04 07:46:50;;;;;;;10.10;3.80;;;9.30;99.90;;;;;;4862149;29;20558;-80
2023/02/04 07:49:17;;;;;;;11.60;3.70;;;9.50;99.90;;;;;;4856359;29;20508;-80
2023/02/04 07:51:44;;;;;;;12.80;4.53;;;9.60;99.90;;;;;;4868861;29;20492;-80
2023/02/04 07:54:11;;;;;;;14.23;4.57;;;9.50;99.90;;;;;;4870867;29;20497;-80
2023/02/04 07:56:37;;;;;;;12.87;5.50;;;9.50;99.90;;;;;;4866564;29;20469;-81
2023/02/04 07:59:04;;;;;;;11.90;5.77;;;9.50;99.90;;;;;;4851257;29;20472;-79
2023/02/04 08:01:31;;;;;;;14.23;3.80;;;9.50;99.90;;;;;;4860147;29;20535;-80
2023/02/04 08:03:58;;;;;;;11.80;4.00;;;9.60;99.90;;;;;;4860015;29;20541;-80
2023/02/04 08:06:25;;;;;;;14.40;3.70;;;9.50;99.90;;;;;;4866734;29;21153;-80
2023/02/04 08:08:52;;;;;;;10.50;3.90;;;9.50;99.90;;;;;;4858003;29;20480;-81
2023/02/04 08:11:19;;;;;;;15.67;3.93;;;9.60;99.90;;;;;;4857867;29;20583;-81
2023/02/04 08:13:46;;;;;;;16.40;4.60;;;9.50;99.90;;;;;;4870732;29;20484;-81
2023/02/04 08:16:13;;;;;;;10.83;4.07;;;9.50;99.90;;;;;;4860726;29;20476;-82
2023/02/04 08:18:40;;;;;;;11.30;4.33;;;9.50;99.90;;;;;;4871302;29;20469;-82
2023/02/04 08:21:06;;;;;;;10.03;3.60;;;9.50;99.90;;;;;;4857591;29;20862;-81
2023/02/04 08:23:34;;;;;;;17.40;5.20;;;9.50;99.90;;;;;;4858748;29;20517;-81
2023/02/04 08:26:01;;;;;;;14.40;4.20;;;9.50;99.90;;;;;;4854987;29;20465;-81
2023/02/04 08:28:31;;;;;;;14.83;4.57;;;9.60;99.90;;;;;;4856056;29;20563;-82
2023/02/04 08:30:58;;;;;;;11.07;3.83;;;9.70;99.90;;;;;;4878246;29;20571;-81
2023/02/04 08:33:24;;;;;;;15.83;4.73;;;9.70;99.90;;;;;;4871129;29;20481;-82
2023/02/04 08:35:51;;;;;;;9.17;5.13;;;9.80;99.90;;;;;;4857992;29;20572;-81
2023/02/04 08:38:18;;;;;;;15.53;4.43;;;9.90;99.90;;;;;;4867965;29;20476;-81
2023/02/04 08:40:45;;;;;;;15.63;4.23;;;10.00;99.90;;;;;;4868775;29;20558;-81
2023/02/04 08:43:12;;;;;;;15.00;4.57;;;10.00;99.90;;;;;;4859340;29;20489;-81
2023/02/04 08:45:39;;;;;;;16.60;5.50;;;10.10;99.90;;;;;;4863142;29;20474;-81
2023/02/04 08:48:08;;;;;;;9.00;4.50;;;10.00;99.90;;;;;;4876537;29;20528;-81
2023/02/04 08:50:35;;;;;;;14.70;4.63;;;10.00;99.90;;;;;;4867093;29;20556;-81
2023/02/04 08:53:04;;;;;;;15.10;5.80;;;9.90;99.90;;;;;;4857911;29;20595;-81
2023/02/04 08:55:31;;;;;;;19.47;5.70;;;9.90;99.90;;;;;;4872441;29;20469;-81
2023/02/04 08:57:58;;;;;;;12.53;4.57;;;9.90;99.90;;;;;;4858678;29;20576;-81
2023/02/04 09:00:25;;;;;;;22.13;4.67;;;9.90;99.90;;;;;;4856685;29;20512;-81
2023/02/04 09:02:52;;;;;;;11.60;4.30;;;9.90;99.90;;;;;;4870953;29;20514;-81
2023/02/04 09:05:19;;;;;;;15.00;4.33;;;9.90;99.90;;;;;;4859019;29;20471;-82
2023/02/04 09:07:46;;;;;;;13.07;4.67;;;9.90;99.90;;;;;;4875551;29;20547;-80
2023/02/04 09:10:12;;;;;;;16.50;5.77;;;10.00;99.90;;;;;;4858776;29;20548;-79
2023/02/04 09:12:40;;;;;;;17.90;5.43;;;10.10;99.90;;;;;;4873648;29;20483;-80
2023/02/04 09:15:10;;;;;;;10.63;4.70;;;10.00;99.90;;;;;;4860262;29;20964;-81
2023/02/04 09:17:37;;;;;;;12.77;5.07;;;10.00;99.90;;;;;;4856043;29;20464;-79
2023/02/04 09:20:05;;;;;;;12.87;6.20;;;10.00;99.90;;;;;;4854759;29;20453;-80
2023/02/04 09:22:32;;;;;;;12.90;5.03;;;10.00;99.90;;;;;;4857445;29;20497;-81
2023/02/04 09:24:59;;;;;;;12.83;5.30;;;10.10;99.90;;;;;;4870024;29;20475;-81
2023/02/04 09:27:25;;;;;;;15.23;5.90;;;10.10;99.90;;;;;;4856553;29;20460;-81
2023/02/04 09:29:52;;;;;;;18.00;4.93;;;10.10;99.90;;;;;;4871450;29;20457;-80
2023/02/04 09:32:19;;;;;;;14.13;4.70;;;10.20;99.90;;;;;;4867422;29;20564;-80
2023/02/04 09:34:46;;;;;;;15.17;4.80;;;10.20;99.90;;;;;;4882120;29;20460;-80
2023/02/04 09:37:13;;;;;;;16.70;4.93;;;10.30;99.90;;;;;;4865706;29;20505;-80
2023/02/04 09:39:40;;;;;;;14.50;4.83;;;10.40;99.90;;;;;;4874370;29;20529;-81
2023/02/04 09:42:12;;;;;;;15.27;4.67;;;11.00;99.90;;;;;;4856947;29;20479;-81
2023/02/04 09:44:41;;;;;;;16.00;6.03;;;11.10;99.90;;;;;;4859130;29;20469;-81
2023/02/04 09:47:11;;;;;;;11.80;5.07;;;11.00;99.90;;;;;;4862323;29;20468;-81
2023/02/04 09:49:38;;;;;;;21.23;5.63;;;10.90;99.90;;;;;;4860887;29;20464;-82
2023/02/04 09:52:11;;;;;;;19.30;4.77;;;11.10;99.90;;;;;;4872932;29;20508;-82
2023/02/04 09:54:38;;;;;;;17.50;5.07;;;11.00;99.90;;;;;;4866001;29;20467;-82
2023/02/04 09:57:18;;;;;;;15.87;6.07;;;10.80;99.90;;;;;;4864929;29;20520;-81
2023/02/04 09:59:45;;;;;;;18.70;5.70;;;10.70;99.90;;;;;;4860430;29;20594;-81
2023/02/04 10:02:22;;;;;;;14.73;5.80;;;10.60;99.90;;;;;;4865688;29;21091;-82
2023/02/04 10:04:52;;;;;;;24.30;7.93;;;10.60;99.90;;;;;;4862007;29;20456;-80
2023/02/04 10:07:23;;;;;;;13.83;5.77;;;10.70;99.90;;;;;;4859900;29;20460;-82
2023/02/04 10:09:54;;;;;;;18.10;6.57;;;11.10;99.90;;;;;;4859863;29;20849;-81
2023/02/04 10:12:22;;;;;;;15.80;6.37;;;11.30;99.90;;;;;;4860560;29;20504;-82
2023/02/04 10:14:49;;;;;;;16.70;6.33;;;11.00;99.90;;;;;;4861501;29;20524;-81
2023/02/04 10:17:24;;;;;;;13.00;6.13;;;10.90;99.90;;;;;;4864972;29;20472;-81
2023/02/04 10:19:51;;;;;;;13.27;5.60;;;10.70;99.90;;;;;;4863393;29;20457;-82
2023/02/04 10:22:21;;;;;;;25.00;8.30;;;10.60;99.90;;;;;;4862686;29;20527;-81
2023/02/04 10:24:48;;;;;;;20.07;7.53;;;10.70;99.90;;;;;;4863634;29;20472;-81
2023/02/04 10:27:16;;;;;;;19.43;7.47;;;10.70;99.90;;;;;;4867205;29;20527;-80
2023/02/04 10:29:57;;;;;;;22.37;8.27;;;10.80;99.90;;;;;;4867208;29;20599;-80
2023/02/04 10:32:32;;;;;;;16.80;7.20;;;10.80;99.90;;;;;;4878992;29;20882;-83
2023/02/04 10:35:01;;;;;;;18.07;7.60;;;10.70;99.90;;;;;;4866098;29;20468;-81
2023/02/04 10:37:30;;;;;;;20.10;9.27;;;11.00;99.90;;;;;;4879236;29;20468;-82
2023/02/04 10:39:58;;;;;;;18.13;8.67;;;11.00;99.90;;;;;;4866500;29;20466;-81
2023/02/04 10:42:28;;;;;;;20.30;10.07;;;10.90;99.90;;;;;;4851954;29;20619;-82
2023/02/04 10:44:57;;;;;;;19.67;9.63;;;10.90;99.90;;;;;;4865858;29;20472;-81
2023/02/04 10:47:29;;;;;;;27.20;13.67;;;10.70;99.90;;;;;;4875775;29;20472;-81
2023/02/04 10:50:14;;;;;;;27.37;11.07;;;10.60;99.90;;;;;;4870885;29;20465;-80
2023/02/04 10:52:46;;;;;;;24.80;13.60;;;10.50;99.90;;;;;;4867459;29;20580;-81
2023/02/04 10:55:16;;;;;;;26.67;13.57;;;10.40;99.90;;;;;;4856076;29;20537;-83
2023/02/04 10:57:47;;;;;;;25.60;12.67;;;10.40;99.90;;;;;;4875051;29;20456;-81
2023/02/04 11:00:20;;;;;;;19.50;10.53;;;10.40;99.90;;;;;;4860103;29;20483;-80
2023/02/04 11:03:16;;;;;;;18.47;8.53;;;10.40;99.90;;;;;;4859428;29;20491;-80
2023/02/04 11:06:31;;;;;;;21.90;8.70;;;10.40;99.90;;;;;;4873005;29;20453;-80
2023/02/04 11:09:52;;;;;;;17.67;9.93;;;10.40;99.90;;;;;;4860641;29;21759;-79
2023/02/04 11:13:24;;;;;;;23.90;9.60;;;10.40;99.90;;;;;;4863587;29;21742;-82
2023/02/04 11:16:53;;;;;;;17.60;8.33;;;10.50;99.90;;;;;;4851213;29;20462;-82
2023/02/04 11:19:51;;;;;;;;;;;;;;;;;;;;;
2023/02/04 11:23:24;;;;;;;20.20;9.93;;;10.40;99.90;;;;;;4831732;23;20588;-81
2023/02/04 11:26:47;;;;;;;;;;;;;;;;;;;;;
2023/02/04 11:30:34;;;;;;;;;;;;;;;;;;;;;
2023/02/04 11:42:19;;;;;;;15.80;7.83;;;10.60;99.90;;;;;;4809799;29;20532;-82
2023/02/04 11:48:38;;;;;;;14.20;8.70;;;10.60;99.90;;;;;;4810834;29;20532;-81
2023/02/04 11:51:47;;;;;;;16.53;7.47;;;10.60;99.90;;;;;;4805197;29;20514;-81
2023/02/04 11:55:33;;;;;;;;;;;;;;;;;;;;;
2023/02/04 11:58:42;;;;;;;14.73;7.33;;;10.60;99.90;;;;;;4800632;29;20884;-82
2023/02/04 12:01:53;;;;;;;23.03;8.43;;;10.70;99.80;;;;;;4791839;29;20550;-81
2023/02/04 12:05:23;;;;;;;15.40;7.80;;;10.80;99.70;;;;;;4798384;29;20663;-81
2023/02/04 12:07:52;;;;;;;19.53;7.00;;;10.90;99.60;;;;;;4792438;29;20478;-80
2023/02/04 12:10:49;;;;;;;15.67;6.90;;;10.90;99.20;;;;;;4804493;29;20469;-81
2023/02/04 12:14:07;;;;;;;19.03;7.10;;;10.90;99.00;;;;;;4821878;29;20661;-83
2023/02/04 12:16:51;;;;;;;16.57;7.77;;;11.00;98.70;;;;;;4790312;29;20828;-81
2023/02/04 12:19:25;;;;;;;17.13;6.83;;;11.10;98.60;;;;;;4809916;29;20520;-80
2023/02/04 12:22:20;;;;;;;18.40;8.07;;;11.10;98.50;;;;;;4842784;29;21087;-81
2023/02/04 12:25:25;;;;;;;19.27;9.50;;;11.10;98.30;;;;;;4834884;29;20482;-81
2023/02/04 12:28:35;;;;;;;15.20;7.60;;;11.10;98.30;;;;;;4800347;29;21171;-81
2023/02/04 12:31:42;;;;;;;;;;;;;;;;;;;;;
2023/02/04 12:38:36;;;;;;;;;;;;;;;;;;;;;
2023/02/04 12:46:00;;;;;;;20.57;6.13;;;11.40;96.60;;;;;;4792463;29;20463;-80
2023/02/04 12:49:27;;;;;;;19.03;7.13;;;11.40;96.80;;;;;;4819983;29;20525;-80
2023/02/04 12:56:04;;;;;;;19.93;7.23;;;11.30;96.50;;;;;;4807847;29;20451;-81
2023/02/04 13:02:42;;;;;;;18.13;7.70;;;11.30;96.50;;;;;;5092244;23;20953;-81
2023/02/04 13:05:17;;;;;;;19.60;7.33;;;11.50;96.90;;;;;;4859711;29;20564;-81
2023/02/04 13:08:01;;;;;;;18.70;7.80;;;11.50;96.70;;;;;;4859112;29;20500;-81
2023/02/04 13:10:34;;;;;;;17.07;6.57;;;11.50;96.30;;;;;;4858610;29;20461;-81
2023/02/04 13:13:23;;;;;;;14.80;7.40;;;11.60;96.20;;;;;;4864972;29;20527;-82
2023/02/04 13:16:23;;;;;;;14.27;6.73;;;11.60;95.70;;;;;;4849588;29;20466;-82
2023/02/04 13:19:23;;;;;;;12.90;6.80;;;11.70;95.40;;;;;;4868393;29;20470;-82
2023/02/04 13:22:09;;;;;;;21.10;6.90;;;12.00;95.20;;;;;;4882650;29;20574;-81
2023/02/04 13:25:00;;;;;;;17.33;6.33;;;12.60;94.10;;;;;;4857354;29;20476;-82
2023/02/04 13:27:53;;;;;;;11.70;6.57;;;13.00;91.20;;;;;;4868059;29;20468;-83
2023/02/04 13:30:29;;;;;;;14.07;7.20;;;12.90;90.70;;;;;;4862066;29;20571;-82
2023/02/04 13:33:34;;;;;;;15.13;6.23;;;12.70;90.90;;;;;;4855945;29;20616;-82
2023/02/04 13:36:20;;;;;;;12.20;5.93;;;12.60;91.60;;;;;;4860606;29;20470;-82
2023/02/04 13:38:52;;;;;;;13.10;5.90;;;12.50;91.70;;;;;;4843731;29;20473;-82
2023/02/04 13:41:33;;;;;;;14.90;5.90;;;12.50;92.10;;;;;;4861897;29;20499;-83
2023/02/04 13:44:21;;;;;;;17.43;6.10;;;12.50;91.90;;;;;;4847931;29;20469;-82
2023/02/04 13:47:07;;;;;;;16.10;4.67;;;12.30;92.30;;;;;;4847886;29;20466;-82